.
WxDataArchive / Data Records for 2008-05-04
2008-05-03 May 2008 2008-05-05

Data Records for Sunday, 04 May 2008

Time	Temp	Chill	HIndex	Humid	Dewpt	 Wind 	HiWind	WindDir	Rain 	Barom 
-----	----	-----	------	-----	-----	------	------	-------	-----	----- 
00:00	46.1	46.1	46.1	79	40.0	0	3	248	0.00	29.928 
00:05	46.0	46.0	46.0	79	39.9	1	3	248	0.00	29.929 
00:10	45.8	45.8	45.8	79	39.7	0	1	248	0.00	29.929 
00:15	45.8	45.8	45.8	79	39.7	0	1	248	0.00	29.929 
00:20	45.7	45.7	45.7	79	39.6	0	2	248	0.00	29.930 
00:25	45.7	45.7	45.7	79	39.6	1	4	248	0.00	29.930 
00:30	45.5	45.5	45.5	79	39.4	0	1	248	0.00	29.930 
00:35	45.4	45.4	45.4	79	39.3	0	1	248	0.00	29.931 
00:40	45.4	45.4	45.4	78	38.9	0	2	248	0.00	29.931 
00:45	45.2	45.2	45.2	78	38.8	0	1	248	0.00	29.932 
00:50	45.1	45.1	45.1	78	38.7	0	1	248	0.00	29.933 
00:55	45.1	45.1	45.1	78	38.7	0	1	248	0.00	29.934 
01:00	44.9	44.9	44.9	78	38.5	0	1	248	0.00	29.934 
01:05	44.8	44.8	44.8	79	38.7	0	1	248	0.00	29.937 
01:10	44.6	44.6	44.6	79	38.5	0	2	248	0.00	29.938 
01:15	44.5	44.5	44.5	79	38.4	0	1	248	0.00	29.940 
01:20	44.3	44.3	44.3	79	38.2	0	1	248	0.00	29.941 
01:25	44.2	44.2	44.2	80	38.4	0	1	248	0.00	29.945 
01:30	44.1	44.1	44.1	80	38.3	0	1	248	0.00	29.944 
01:35	43.9	43.9	43.9	80	38.1	0	0	---	0.00	29.944 
01:40	43.6	43.6	43.6	80	37.8	0	1	248	0.00	29.942 
01:45	43.3	43.3	43.3	81	37.9	0	0	---	0.00	29.941 
01:50	43.1	43.1	43.1	81	37.7	0	0	---	0.00	29.941 
01:55	42.9	42.9	42.9	82	37.8	0	1	248	0.00	29.941 
02:00	42.8	42.8	42.8	82	37.7	0	1	248	0.00	29.942 
02:05	42.6	42.6	42.6	83	37.8	0	0	---	0.00	29.947 
02:10	42.5	42.5	42.5	83	37.7	0	0	---	0.00	29.948 
02:15	42.3	42.3	42.3	84	37.8	0	0	---	0.00	29.947 
02:20	42.2	42.2	42.2	84	37.7	0	0	---	0.00	29.950 
02:25	41.9	41.9	41.9	84	37.4	0	0	---	0.00	29.952 
02:30	41.8	41.8	41.8	85	37.6	0	0	---	0.00	29.953 
02:35	41.6	41.6	41.6	85	37.4	0	0	---	0.00	29.953 
02:40	41.5	41.5	41.5	86	37.6	0	0	---	0.00	29.953 
02:45	41.2	41.2	41.2	86	37.3	0	0	---	0.00	29.956 
02:50	40.9	40.9	40.9	86	37.0	0	0	---	0.00	29.957 
02:55	40.8	40.8	40.8	87	37.2	0	0	---	0.00	29.959 
03:00	40.6	40.6	40.6	87	37.0	0	0	---	0.00	29.960 
03:05	40.5	40.5	40.5	88	37.2	0	0	---	0.00	29.964 
03:10	40.5	40.5	40.5	88	37.2	0	0	---	0.00	29.967 
03:15	40.5	40.5	40.5	89	37.5	0	0	---	0.00	29.972 
03:20	40.3	40.3	40.3	89	37.3	0	0	---	0.00	29.975 
03:25	40.2	40.2	40.2	89	37.2	0	0	---	0.00	29.977 
03:30	39.9	39.9	39.9	89	36.9	0	0	---	0.00	29.977 
03:35	39.8	39.8	39.8	90	37.1	0	0	---	0.00	29.977 
03:40	39.6	39.6	39.6	90	36.9	0	0	---	0.00	29.978 
03:45	39.5	39.5	39.5	90	36.8	0	0	---	0.00	29.979 
03:50	39.3	39.3	39.3	90	36.6	0	0	---	0.00	29.981 
03:55	39.2	39.2	39.2	91	36.8	0	0	---	0.00	29.984 
04:00	39.1	39.1	39.1	91	36.7	0	0	---	0.00	29.989 
04:05	38.8	38.8	38.8	91	36.4	0	0	---	0.00	29.992 
04:10	38.8	38.8	38.8	91	36.4	0	0	---	0.00	29.992 
04:15	38.6	38.6	38.6	91	36.2	0	0	---	0.00	29.993 
04:20	38.5	38.5	38.5	91	36.1	0	0	---	0.00	29.994 
04:25	38.2	38.2	38.2	91	35.8	0	0	---	0.00	29.996 
04:30	38.0	38.0	38.0	91	35.6	0	0	---	0.00	29.997 
04:35	37.9	37.9	37.9	92	35.8	0	0	---	0.00	29.998 
04:40	37.9	37.9	37.9	92	35.8	0	0	---	0.00	29.998 
04:45	37.8	37.8	37.8	92	35.7	0	0	---	0.00	29.999 
04:50	37.6	37.6	37.6	92	35.5	0	0	---	0.00	30.002 
04:55	37.3	37.3	37.3	92	35.2	0	0	---	0.00	30.005 
05:00	37.3	37.3	37.3	92	35.2	0	0	---	0.00	30.006 
05:05	37.2	37.2	37.2	92	35.1	0	0	---	0.00	30.011 
05:10	37.0	37.0	37.0	92	34.9	0	0	---	0.00	30.013 
05:15	36.9	36.9	36.9	92	34.8	0	0	---	0.00	30.014 
05:20	36.6	36.6	36.6	92	34.5	0	0	---	0.00	30.016 
05:25	36.5	36.5	36.5	92	34.4	0	0	---	0.00	30.017 
05:30	36.5	36.5	36.5	93	34.7	0	0	---	0.00	30.017 
05:35	36.5	36.5	36.5	93	34.7	0	0	---	0.00	30.019 
05:40	36.5	36.5	36.5	93	34.7	0	0	---	0.00	30.019 
05:45	36.5	36.5	36.5	93	34.7	0	0	---	0.00	30.023 
05:50	36.3	36.3	36.3	93	34.5	0	0	---	0.00	30.024 
05:55	36.5	36.5	36.5	93	34.7	0	0	---	0.00	30.029 
06:00	36.6	36.6	36.6	93	34.8	0	0	---	0.00	30.032 
06:05	36.6	36.6	36.6	93	34.8	0	0	---	0.00	30.032 
06:10	36.8	36.8	36.8	94	35.2	0	0	---	0.00	30.034 
06:15	37.0	37.0	37.0	94	35.4	0	0	---	0.00	30.035 
06:20	37.3	37.3	37.3	94	35.7	0	0	---	0.00	30.036 
06:25	37.6	37.6	37.6	94	36.0	0	0	---	0.00	30.038 
06:30	38.0	38.0	38.0	94	36.4	0	0	---	0.00	30.039 
06:35	38.8	38.8	38.8	95	37.5	0	0	---	0.00	30.042 
06:40	39.6	39.6	39.6	95	38.3	0	0	---	0.00	30.044 
06:45	40.6	40.6	40.6	95	39.3	0	0	---	0.00	30.044 
06:50	41.6	41.6	41.6	96	40.5	0	0	---	0.00	30.045 
06:55	42.9	42.9	42.9	96	41.8	0	0	---	0.00	30.048 
07:00	43.9	43.9	43.9	95	42.6	0	3	270	0.00	30.050 
07:05	44.6	44.6	44.6	93	42.7	0	2	270	0.00	30.053 
07:10	45.7	45.7	45.7	92	43.5	0	1	270	0.00	30.056 
07:15	46.5	46.5	46.5	89	43.4	0	2	270	0.00	30.056 
07:20	47.3	47.3	47.3	85	43.0	0	2	270	0.00	30.058 
07:25	47.7	47.7	47.7	84	43.1	0	1	270	0.00	30.056 
07:30	48.3	48.3	48.3	81	42.7	1	3	270	0.00	30.056 
07:35	48.8	48.8	48.8	80	42.9	0	2	270	0.00	30.059 
07:40	49.4	49.4	49.4	77	42.5	1	3	270	0.00	30.058 
07:45	49.8	49.8	49.8	76	42.5	1	2	270	0.00	30.058 
07:50	50.2	50.2	50.2	76	42.9	0	2	270	0.00	30.061 
07:55	50.4	50.4	50.4	75	42.8	0	2	270	0.00	30.062 
08:00	50.7	50.7	50.7	76	43.4	1	3	270	0.00	30.061 
08:05	51.1	51.1	51.1	73	42.7	1	3	135	0.00	30.062 
08:10	51.6	51.6	51.6	72	42.9	1	3	112	0.00	30.061 
08:15	51.6	51.6	51.6	72	42.9	1	5	135	0.00	30.061 
08:20	51.9	51.9	51.9	72	43.2	1	3	112	0.00	30.063 
08:25	52.5	52.5	52.5	73	44.1	0	2	112	0.00	30.065 
08:30	52.6	52.6	52.6	69	42.7	2	4	112	0.00	30.064 
08:35	52.9	52.9	52.9	69	43.0	1	4	112	0.00	30.066 
08:40	53.2	53.2	53.2	70	43.7	1	4	90	0.00	30.065 
08:45	53.6	53.6	53.6	68	43.3	1	3	112	0.00	30.065 
08:50	54.1	54.1	54.1	70	44.5	0	2	112	0.00	30.065 
08:55	54.7	54.7	54.7	66	43.6	1	4	112	0.00	30.064 
09:00	55.1	55.1	55.1	64	43.1	1	3	90	0.00	30.066 
09:05	55.1	55.1	55.1	64	43.1	1	3	270	0.00	30.066 
09:10	55.9	55.9	55.9	62	43.1	1	5	292	0.00	30.066 
09:15	55.7	55.7	55.7	61	42.5	3	6	90	0.00	30.066 
09:20	55.6	55.6	55.6	63	43.2	1	4	90	0.00	30.066 
09:25	55.9	55.9	55.9	61	42.6	2	5	90	0.00	30.067 
09:30	56.0	56.0	56.0	59	41.9	2	5	90	0.00	30.067 
09:35	56.3	56.3	56.3	58	41.7	2	5	90	0.00	30.067 
09:40	56.7	56.7	56.7	58	42.1	2	5	112	0.00	30.067 
09:45	57.2	57.2	57.2	58	42.6	1	4	248	0.00	30.069 
09:50	57.8	57.8	57.8	58	43.1	1	4	112	0.00	30.071 
09:55	58.0	58.0	58.0	55	41.9	1	4	225	0.00	30.071 
10:00	58.7	58.7	58.7	57	43.5	1	4	90	0.00	30.070 
10:05	59.2	59.2	59.2	55	43.0	1	3	90	0.00	30.072 
10:10	59.2	59.2	59.2	50	40.6	2	4	112	0.00	30.073 
10:15	59.5	59.5	59.5	50	40.8	1	5	90	0.00	30.073 
10:20	59.5	59.5	59.5	53	42.4	2	5	112	0.00	30.072 
10:25	59.2	59.2	59.2	54	42.6	1	3	90	0.00	30.074 
10:30	58.4	58.4	58.4	48	38.8	1	4	248	0.00	30.074 
10:35	58.9	58.9	58.9	48	39.2	1	3	248	0.00	30.069 
10:40	59.5	59.5	59.5	46	38.7	1	3	90	0.00	30.067 
10:45	60.2	60.2	60.2	48	40.4	2	6	112	0.00	30.070 
10:50	60.5	60.5	60.5	44	38.5	1	4	338	0.00	30.066 
10:55	60.9	60.9	60.9	42	37.7	2	6	90	0.00	30.064 
11:00	60.4	60.4	60.4	42	37.2	2	6	112	0.00	30.065 
11:05	60.4	60.4	60.4	39	35.3	1	4	270	0.00	30.067 
11:10	60.5	60.5	60.5	39	35.4	1	4	270	0.00	30.067 
11:15	60.7	60.7	60.7	38	34.9	2	5	270	0.00	30.069 
11:20	60.7	60.7	60.7	43	38.1	1	4	270	0.00	30.067 
11:25	61.2	61.2	61.2	41	37.3	2	6	68	0.00	30.067 
11:30	61.3	61.3	61.3	40	36.8	3	6	90	0.00	30.065 
11:35	61.5	61.5	61.5	43	38.8	1	6	112	0.00	30.063 
11:40	61.3	61.3	61.3	41	37.4	2	6	248	0.00	30.063 
11:45	61.6	61.6	61.6	44	39.5	1	3	270	0.00	30.060 
11:50	62.0	62.0	62.0	41	38.0	2	5	90	0.00	30.060 
11:55	61.3	61.3	61.3	39	36.1	2	10	248	0.00	30.061 
12:00	61.3	61.3	61.3	43	38.6	2	4	90	0.00	30.058 
12:05	62.0	62.0	62.0	43	39.2	1	6	90	0.00	30.060 
12:10	62.4	62.4	62.4	41	38.4	1	3	90	0.00	30.060 
12:15	62.7	62.7	62.7	39	37.4	2	6	270	0.00	30.058 
12:20	62.7	62.7	62.7	35	34.7	0	2	248	0.00	30.056 
12:25	62.7	62.7	62.7	41	38.7	1	6	248	0.00	30.056 
12:30	62.9	62.9	62.9	38	36.9	1	5	270	0.00	30.053 
12:35	62.7	62.7	62.7	40	38.0	1	4	90	0.00	30.051 
12:40	62.9	62.9	62.9	38	36.9	2	4	292	0.00	30.053 
12:45	63.2	63.2	63.2	37	36.5	2	4	248	0.00	30.052 
12:50	63.5	63.5	63.5	38	37.4	1	3	248	0.00	30.048 
12:55	63.9	63.9	63.9	36	36.4	1	4	90	0.00	30.047 
13:00	64.0	64.0	64.0	41	39.8	2	4	248	0.00	30.045 
13:05	64.3	64.3	64.3	42	40.7	1	4	248	0.00	30.047 
13:10	64.0	64.0	64.0	38	37.9	2	6	112	0.00	30.047 
13:15	63.9	63.9	63.9	35	35.7	2	5	270	0.00	30.046 
13:20	64.0	64.0	64.0	36	36.5	1	5	270	0.00	30.044 
13:25	64.3	64.3	64.3	38	38.1	1	5	292	0.00	30.044 
13:30	64.2	64.2	64.2	38	38.1	1	3	248	0.00	30.042 
13:35	64.5	64.5	64.5	34	35.5	2	6	248	0.00	30.040 
13:40	64.8	64.8	64.8	33	35.0	2	6	248	0.00	30.042 
13:45	64.5	64.5	64.5	36	36.9	1	3	248	0.00	30.039 
13:50	65.0	65.0	65.0	35	36.7	1	4	248	0.00	30.035 
13:55	65.0	65.0	65.0	39	39.4	2	9	90	0.00	30.034 
14:00	65.2	65.2	65.2	34	36.1	2	7	90	0.00	30.032 
14:05	65.5	65.5	65.5	36	37.8	1	4	248	0.00	30.037 
14:10	66.1	66.1	66.1	39	40.4	1	4	248	0.00	30.033 
14:15	66.8	66.8	66.8	35	38.3	1	4	270	0.00	30.031 
14:20	66.4	66.4	66.4	32	35.6	2	9	248	0.00	30.033 
14:25	66.4	66.4	66.4	36	38.6	1	4	248	0.00	30.032 
14:30	66.6	66.6	66.6	33	36.6	2	6	90	0.00	30.029 
14:35	66.3	66.3	66.3	35	37.8	1	6	90	0.00	30.031 
14:40	66.4	66.4	66.4	36	38.6	1	4	90	0.00	30.029 
14:45	66.9	66.9	66.9	35	38.4	1	3	248	0.00	30.028 
14:50	67.1	67.1	67.1	36	39.2	0	2	248	0.00	30.025 
14:55	67.4	67.4	67.4	35	38.8	1	4	68	0.00	30.022 
15:00	67.1	67.1	67.1	34	37.8	2	7	90	0.00	30.017 
15:05	66.9	66.9	66.9	32	36.1	2	6	225	0.00	30.022 
15:10	66.8	66.8	66.8	34	37.5	2	6	248	0.00	30.020 
15:15	66.6	66.6	66.6	31	35.0	2	5	248	0.00	30.019 
15:20	66.6	66.6	66.6	30	34.2	2	6	248	0.00	30.017 
15:25	66.6	66.6	66.6	32	35.8	2	5	248	0.00	30.017 
15:30	66.4	66.4	66.4	28	32.3	1	3	248	0.00	30.016 
15:35	66.6	66.6	66.6	30	34.2	2	5	270	0.00	30.016 
15:40	66.8	66.8	66.8	30	34.4	1	5	248	0.00	30.015 
15:45	66.8	66.8	66.8	32	36.0	2	4	248	0.00	30.013 
15:50	66.4	66.4	66.4	31	34.8	1	4	248	0.00	30.009 
15:55	66.4	66.4	66.4	30	34.0	1	3	112	0.00	30.007 
16:00	66.6	66.6	66.6	29	33.3	2	7	270	0.00	30.004 
16:05	66.8	66.8	66.8	36	39.0	1	4	292	0.00	30.007 
16:10	67.1	67.1	67.1	33	37.0	1	3	248	0.00	30.005 
16:15	67.1	67.1	67.1	30	34.6	2	9	248	0.00	30.005 
16:20	67.1	67.1	67.1	33	37.0	1	3	248	0.00	30.004 
16:25	66.9	66.9	66.9	29	33.6	1	3	270	0.00	30.004 
16:30	66.9	66.9	66.9	28	32.7	1	4	248	0.00	30.003 
16:35	66.8	66.8	66.8	27	31.7	2	6	248	0.00	30.004 
16:40	66.8	66.8	66.8	30	34.4	1	3	248	0.00	30.003 
16:45	66.9	66.9	66.9	29	33.6	2	7	135	0.00	30.002 
16:50	66.6	66.6	66.6	30	34.2	2	4	270	0.00	30.002 
16:55	66.3	66.3	66.3	30	33.9	2	6	248	0.00	30.004 
17:00	66.3	66.3	66.3	32	35.6	1	4	225	0.00	30.004 
17:05	66.0	66.0	66.0	29	32.8	1	3	292	0.00	30.004 
17:10	65.8	65.8	65.8	31	34.3	2	12	248	0.00	30.003 
17:15	65.8	65.8	65.8	30	33.5	2	5	248	0.00	30.002 
17:20	65.6	65.6	65.6	31	34.1	1	6	225	0.00	30.003 
17:25	65.5	65.5	65.5	32	34.9	0	2	225	0.00	30.002 
17:30	65.5	65.5	65.5	32	34.9	1	5	248	0.00	30.001 
17:35	65.6	65.6	65.6	30	33.3	1	4	248	0.00	30.001 
17:40	65.6	65.6	65.6	31	34.1	0	2	248	0.00	30.001 
17:45	65.6	65.6	65.6	32	34.9	2	7	248	0.00	29.998 
17:50	65.6	65.6	65.6	31	34.1	1	3	270	0.00	29.998 
17:55	65.6	65.6	65.6	29	32.5	0	2	270	0.00	29.995 
18:00	65.5	65.5	65.5	29	32.4	0	2	270	0.00	29.994 
18:05	65.2	65.2	65.2	28	31.3	1	5	248	0.00	29.991 
18:10	65.0	65.0	65.0	30	32.8	1	4	225	0.00	29.992 
18:15	65.0	65.0	65.0	30	32.8	0	2	202	0.00	29.992 
18:20	64.8	64.8	64.8	30	32.6	1	5	248	0.00	29.992 
18:25	64.7	64.7	64.7	30	32.5	2	4	248	0.00	29.992 
18:30	64.7	64.7	64.7	29	31.7	1	4	248	0.00	29.991 
18:35	64.7	64.7	64.7	30	32.5	0	2	248	0.00	29.992 
18:40	64.5	64.5	64.5	31	33.2	1	4	248	0.00	29.990 
18:45	64.3	64.3	64.3	30	32.2	1	4	248	0.00	29.991 
18:50	64.2	64.2	64.2	31	32.9	0	4	248	0.00	29.990 
18:55	64.0	64.0	64.0	32	33.5	0	2	248	0.00	29.992 
19:00	63.9	63.9	63.9	34	35.0	0	1	248	0.00	29.995 
19:05	63.5	63.5	63.5	34	34.6	0	1	248	0.00	29.991 
19:10	63.4	63.4	63.4	35	35.3	0	1	248	0.00	29.992 
19:15	63.1	63.1	63.1	35	35.0	0	1	248	0.00	29.992 
19:20	62.7	62.7	62.7	35	34.7	0	1	248	0.00	29.993 
19:25	62.3	62.3	62.3	36	35.0	0	1	248	0.00	29.995 
19:30	61.8	61.8	61.8	37	35.3	0	1	248	0.00	29.995 
19:35	61.5	61.5	61.5	36	34.3	0	1	248	0.00	29.994 
19:40	61.0	61.0	61.0	38	35.2	0	0	---	0.00	29.994 
19:45	60.5	60.5	60.5	38	34.8	0	0	---	0.00	29.995 
19:50	60.1	60.1	60.1	40	35.7	0	1	248	0.00	29.997 
19:55	59.5	59.5	59.5	39	34.5	0	0	---	0.00	29.997 
20:00	59.0	59.0	59.0	41	35.3	0	0	---	0.00	29.998 
20:05	58.6	58.6	58.6	42	35.6	0	0	---	0.00	29.996 
20:10	58.0	58.0	58.0	43	35.6	0	0	---	0.00	29.999 
20:15	57.3	57.3	57.3	44	35.6	0	0	---	0.00	30.000 
20:20	56.9	56.9	56.9	45	35.8	0	0	---	0.00	30.004 
20:25	56.5	56.5	56.5	46	36.0	0	0	---	0.00	30.007 
20:30	55.9	55.9	55.9	48	36.5	0	0	---	0.00	30.011 
20:35	55.4	55.4	55.4	50	37.1	0	0	---	0.00	30.012 
20:40	54.8	54.8	54.8	51	37.0	0	0	---	0.00	30.013 
20:45	54.4	54.4	54.4	54	38.1	0	0	---	0.00	30.014 
20:50	53.9	53.9	53.9	54	37.6	0	0	---	0.00	30.016 
20:55	53.5	53.5	53.5	56	38.2	0	0	---	0.00	30.016 
21:00	53.1	53.1	53.1	55	37.4	0	0	---	0.00	30.018 
21:05	52.6	52.6	52.6	57	37.8	0	0	---	0.00	30.015 
21:10	52.3	52.3	52.3	58	38.0	0	0	---	0.00	30.018 
21:15	52.0	52.0	52.0	59	38.1	0	0	---	0.00	30.022 
21:20	51.7	51.7	51.7	60	38.3	0	0	---	0.00	30.023 
21:25	51.4	51.4	51.4	61	38.4	0	0	---	0.00	30.024 
21:30	51.3	51.3	51.3	61	38.3	0	0	---	0.00	30.024 
21:35	51.0	51.0	51.0	61	38.0	0	0	---	0.00	30.025 
21:40	50.8	50.8	50.8	62	38.3	0	0	---	0.00	30.024 
21:45	50.4	50.4	50.4	63	38.3	0	0	---	0.00	30.026 
21:50	49.9	49.9	49.9	64	38.2	0	0	---	0.00	30.029 
21:55	49.6	49.6	49.6	65	38.3	0	0	---	0.00	30.029 
22:00	49.4	49.4	49.4	65	38.1	0	0	---	0.00	30.029 
22:05	49.1	49.1	49.1	67	38.6	0	0	---	0.00	30.030 
22:10	48.9	48.9	48.9	67	38.4	0	0	---	0.00	30.029 
22:15	48.9	48.9	48.9	69	39.2	0	0	---	0.00	30.029 
22:20	48.8	48.8	48.8	70	39.5	0	0	---	0.00	30.028 
22:25	48.6	48.6	48.6	71	39.6	0	0	---	0.00	30.028 
22:30	48.5	48.5	48.5	72	39.9	0	0	---	0.00	30.028 
22:35	48.2	48.2	48.2	72	39.6	0	0	---	0.00	30.026 
22:40	47.9	47.9	47.9	73	39.7	0	0	---	0.00	30.026 
22:45	47.7	47.7	47.7	73	39.5	0	0	---	0.00	30.026 
22:50	47.6	47.6	47.6	73	39.4	0	0	---	0.00	30.027 
22:55	47.4	47.4	47.4	73	39.2	0	0	---	0.00	30.027 
23:00	47.3	47.3	47.3	74	39.4	0	0	---	0.00	30.026 
23:05	47.0	47.0	47.0	74	39.1	0	0	---	0.00	30.025 
23:10	46.8	46.8	46.8	75	39.3	0	0	---	0.00	30.024 
23:15	46.7	46.7	46.7	76	39.5	0	0	---	0.00	30.024 
23:20	46.5	46.5	46.5	76	39.3	0	0	---	0.00	30.023 
23:25	46.2	46.2	46.2	76	39.1	0	0	---	0.00	30.025 
23:30	46.2	46.2	46.2	76	39.1	0	0	---	0.00	30.026 
23:35	46.1	46.1	46.1	76	39.0	0	0	---	0.00	30.026 
23:40	46.0	46.0	46.0	75	38.5	0	0	---	0.00	30.026 
23:45	45.8	45.8	45.8	75	38.3	0	0	---	0.00	30.025 
23:50	45.8	45.8	45.8	76	38.7	0	0	---	0.00	30.026 
23:55	45.7	45.7	45.7	77	38.9	0	0	---	0.00	30.027 

CoCoRaHS
IN-AL-39
A2 Web Hosting
Creative Commons License
GoDaddy
Look for:

loaded 2017-10-17 09:15:14 • last modified 2010-11-18 10:43:29
Privacy PolicyDisclaimer
• wx.awcolley.com is powered by PmWiki v.2002016 •
• all content (unless otherwise noted) © 2017 A W Colley